Time;durP1;ratioP1;P1;durP2;ratioP2;P2;SDS_P1;SDS_P2;PMS_P1;PMS_P2;Temp;Humidity;BMP_temperature;BMP_pressure;BME280_temperature;BME280_humidity;BME280_pressure;Samples;Min_cycle;Max_cycle;Signal;HPM_P1;HPM_P2
2021/03/31 00:00:53;;;;;;;122.85;42.25;;;3.30;99.90;;;;;;5014531;28;20133;-78
2021/03/31 00:03:21;;;;;;;119.30;43.13;;;3.30;99.90;;;;;;5013207;28;20520;-78
2021/03/31 00:05:47;;;;;;;117.50;42.05;;;3.10;99.90;;;;;;5011928;28;20049;-78
2021/03/31 00:08:13;;;;;;;108.35;39.83;;;3.00;99.90;;;;;;5012138;28;20022;-79
2021/03/31 00:10:45;;;;;;;84.10;37.13;;;2.80;99.90;;;;;;5013987;28;20084;-78
2021/03/31 00:13:12;;;;;;;96.57;37.97;;;2.70;99.90;;;;;;5014454;28;20109;-78
2021/03/31 00:15:38;;;;;;;98.88;40.88;;;2.60;99.90;;;;;;5012141;28;20022;-79
2021/03/31 00:18:12;;;;;;;151.85;47.22;;;2.50;99.90;;;;;;5014268;28;20029;-78
2021/03/31 00:20:40;;;;;;;117.70;40.85;;;2.60;99.90;;;;;;5013047;28;20026;-78
2021/03/31 00:23:11;;;;;;;118.53;44.72;;;2.50;99.90;;;;;;5014299;28;20018;-79
2021/03/31 00:25:37;;;;;;;116.40;44.15;;;2.50;99.90;;;;;;5011693;28;20397;-78
2021/03/31 00:28:04;;;;;;;168.88;50.97;;;2.50;99.90;;;;;;5012337;28;20053;-78
2021/03/31 00:30:30;;;;;;;122.20;43.10;;;2.60;99.90;;;;;;5012774;28;20050;-78
2021/03/31 00:32:56;;;;;;;89.05;37.97;;;2.50;99.90;;;;;;5012768;28;20049;-79
2021/03/31 00:35:21;;;;;;;125.15;43.35;;;2.40;99.90;;;;;;5011858;28;20109;-78
2021/03/31 00:37:47;;;;;;;110.93;43.75;;;2.30;99.90;;;;;;5012624;28;20034;-78
2021/03/31 00:40:16;;;;;;;153.77;49.25;;;2.40;99.90;;;;;;5012339;28;20124;-78
2021/03/31 00:42:45;;;;;;;161.05;53.92;;;2.60;99.90;;;;;;5012219;28;20062;-79
2021/03/31 00:45:12;;;;;;;165.95;57.03;;;2.60;99.90;;;;;;5013045;28;20084;-78
2021/03/31 00:47:38;;;;;;;217.57;63.05;;;2.70;99.90;;;;;;5012352;28;20475;-78
2021/03/31 00:50:07;;;;;;;171.50;56.60;;;2.90;99.90;;;;;;5012549;28;20121;-78
2021/03/31 00:52:32;;;;;;;170.52;55.20;;;2.90;99.90;;;;;;5012442;28;20026;-79
2021/03/31 00:54:58;;;;;;;129.75;48.33;;;2.80;99.90;;;;;;5010780;28;20455;-79
2021/03/31 00:57:24;;;;;;;152.02;47.53;;;2.70;99.90;;;;;;5012204;28;20040;-78
2021/03/31 00:59:50;;;;;;;101.32;38.95;;;2.50;99.90;;;;;;5012795;28;20022;-78
2021/03/31 01:02:16;;;;;;;86.75;38.67;;;2.40;99.90;;;;;;5013460;28;20117;-78
2021/03/31 01:04:42;;;;;;;108.40;43.10;;;2.30;99.90;;;;;;5011348;28;20125;-79
2021/03/31 01:07:07;;;;;;;102.85;40.40;;;2.10;99.90;;;;;;5011503;28;20113;-78
2021/03/31 01:09:33;;;;;;;97.57;40.33;;;2.10;99.90;;;;;;5011645;28;20018;-79
2021/03/31 01:12:28;;;;;;;116.72;42.72;;;2.00;99.90;;;;;;5012055;28;20029;-78
2021/03/31 01:15:41;;;;;;;99.10;38.22;;;2.00;99.90;;;;;;5012327;28;20022;-79
2021/03/31 01:18:15;;;;;;;102.00;38.97;;;1.90;99.90;;;;;;5004743;28;20637;-79
2021/03/31 01:21:04;;;;;;;106.95;43.83;;;1.90;99.90;;;;;;5012668;28;20022;-78
2021/03/31 01:24:07;;;;;;;100.55;42.20;;;1.90;99.90;;;;;;5011876;28;20018;-78
2021/03/31 01:26:51;;;;;;;90.53;34.15;;;1.90;99.90;;;;;;5011155;28;20088;-78
2021/03/31 01:29:44;;;;;;;106.25;37.88;;;1.80;99.90;;;;;;5011057;28;20083;-78
2021/03/31 01:32:20;;;;;;;137.38;44.60;;;1.80;99.90;;;;;;5013003;28;20529;-78
2021/03/31 01:34:56;;;;;;;116.55;44.83;;;1.80;99.90;;;;;;5010587;28;20536;-78
2021/03/31 01:37:35;;;;;;;91.05;36.65;;;1.80;99.90;;;;;;5011039;28;20076;-78
2021/03/31 01:40:04;;;;;;;89.57;34.70;;;1.70;99.90;;;;;;5012602;28;20036;-78
2021/03/31 01:42:32;;;;;;;324.30;48.22;;;1.50;99.90;;;;;;5011495;28;20037;-79
2021/03/31 01:45:04;;;;;;;130.38;43.10;;;1.50;99.90;;;;;;5010735;28;20084;-78
2021/03/31 01:47:32;;;;;;;92.65;37.65;;;1.40;99.90;;;;;;5011183;28;20470;-79
2021/03/31 01:50:00;;;;;;;111.30;40.30;;;1.40;99.90;;;;;;5011406;28;20030;-78
2021/03/31 01:52:26;;;;;;;111.00;40.15;;;1.30;99.90;;;;;;5012329;28;20026;-78
2021/03/31 01:54:53;;;;;;;527.78;49.22;;;1.30;99.90;;;;;;5011406;28;20033;-78
2021/03/31 01:57:22;;;;;;;84.68;37.83;;;1.40;99.90;;;;;;5011129;28;20036;-79
2021/03/31 01:59:48;;;;;;;104.38;40.58;;;1.40;99.90;;;;;;5010907;28;20026;-78
2021/03/31 02:02:15;;;;;;;90.20;41.38;;;1.40;99.90;;;;;;5011147;28;20490;-79
2021/03/31 02:04:41;;;;;;;88.75;39.38;;;1.40;99.90;;;;;;5010490;28;20037;-78
2021/03/31 02:07:08;;;;;;;84.32;36.67;;;1.30;99.90;;;;;;5011708;28;20030;-78
2021/03/31 02:09:37;;;;;;;96.15;38.35;;;1.20;99.90;;;;;;5012099;28;20109;-78
2021/03/31 02:12:03;;;;;;;310.73;46.55;;;1.00;99.90;;;;;;5010991;28;20494;-79
2021/03/31 02:14:31;;;;;;;79.28;35.78;;;0.90;99.90;;;;;;5009922;28;20609;-79
2021/03/31 02:16:58;;;;;;;62.75;33.67;;;0.80;99.90;;;;;;5011849;28;20037;-78
2021/03/31 02:19:24;;;;;;;78.53;36.03;;;0.80;99.90;;;;;;5012024;28;20045;-79
2021/03/31 02:21:51;;;;;;;65.78;33.15;;;0.70;99.90;;;;;;5010940;28;20037;-78
2021/03/31 02:24:19;;;;;;;242.95;37.30;;;0.70;99.90;;;;;;5010190;28;20034;-79
2021/03/31 02:26:45;;;;;;;87.72;31.63;;;0.60;99.90;;;;;;5011518;28;20053;-78
2021/03/31 02:29:10;;;;;;;278.73;42.35;;;0.70;99.90;;;;;;5010396;28;20081;-78
2021/03/31 02:31:38;;;;;;;381.90;52.42;;;0.90;99.90;;;;;;5008996;28;20022;-78
2021/03/31 02:34:06;;;;;;;491.92;54.80;;;1.20;99.90;;;;;;5009686;28;20109;-78
2021/03/31 02:36:33;;;;;;;383.67;50.38;;;1.50;99.90;;;;;;5010176;28;20022;-78
2021/03/31 02:39:00;;;;;;;93.32;39.42;;;1.70;99.90;;;;;;5010301;28;20068;-78
2021/03/31 02:41:26;;;;;;;280.75;53.13;;;1.70;99.90;;;;;;5011446;28;20022;-79
2021/03/31 02:43:54;;;;;;;238.18;51.63;;;1.70;99.90;;;;;;5009598;28;20501;-78
2021/03/31 02:46:21;;;;;;;135.82;45.75;;;1.50;99.90;;;;;;5009878;28;20030;-79
2021/03/31 02:48:51;;;;;;;83.45;35.75;;;1.30;99.90;;;;;;5011543;28;20041;-79
2021/03/31 02:51:19;;;;;;;69.93;28.27;;;1.10;99.90;;;;;;5010343;28;20030;-78
2021/03/31 02:53:45;;;;;;;60.45;25.05;;;0.90;99.90;;;;;;5011035;28;20488;-78
2021/03/31 02:56:13;;;;;;;152.85;28.73;;;0.70;99.90;;;;;;5010126;28;20026;-78
2021/03/31 02:58:42;;;;;;;80.82;26.88;;;0.60;99.90;;;;;;5011627;28;20487;-78
2021/03/31 03:01:08;;;;;;;57.42;27.65;;;0.50;99.90;;;;;;5011710;28;20033;-78
2021/03/31 03:03:37;;;;;;;63.45;29.00;;;0.60;99.90;;;;;;5010399;28;20034;-79
2021/03/31 03:06:03;;;;;;;58.22;25.15;;;0.60;99.90;;;;;;5010911;28;20433;-79
2021/03/31 03:08:30;;;;;;;50.03;24.80;;;0.50;99.90;;;;;;5010118;28;20104;-79
2021/03/31 03:11:00;;;;;;;52.85;22.65;;;0.50;99.90;;;;;;5011359;28;20026;-79
2021/03/31 03:13:29;;;;;;;65.90;22.63;;;0.50;99.90;;;;;;5010369;28;20022;-78
2021/03/31 03:15:59;;;;;;;47.17;20.67;;;0.40;99.90;;;;;;5008965;28;20028;-79
2021/03/31 03:18:25;;;;;;;32.30;20.63;;;0.40;99.90;;;;;;5011485;28;20081;-79
2021/03/31 03:20:51;;;;;;;344.52;35.17;;;0.40;99.90;;;;;;5011254;28;20021;-79
2021/03/31 03:23:18;;;;;;;111.68;37.25;;;0.50;99.90;;;;;;5011495;28;20099;-79
2021/03/31 03:25:46;;;;;;;90.20;38.42;;;0.70;99.90;;;;;;5008525;28;20132;-79
2021/03/31 03:28:17;;;;;;;173.40;47.90;;;0.80;99.90;;;;;;5009587;28;20505;-78
2021/03/31 03:30:44;;;;;;;164.43;43.38;;;0.80;99.90;;;;;;5010207;28;20052;-79
2021/03/31 03:33:09;;;;;;;442.15;62.90;;;0.90;99.90;;;;;;5010234;28;20054;-79
2021/03/31 03:35:35;;;;;;;681.72;90.68;;;0.90;99.90;;;;;;5009946;28;20053;-78
2021/03/31 03:38:01;;;;;;;347.55;66.68;;;1.30;99.90;;;;;;5011261;28;20065;-78
2021/03/31 03:40:27;;;;;;;158.38;49.28;;;1.50;99.90;;;;;;5009759;28;20429;-79
2021/03/31 03:42:53;;;;;;;815.50;89.88;;;1.50;99.90;;;;;;5010766;28;20033;-78
2021/03/31 03:45:22;;;;;;;694.15;94.55;;;1.40;99.90;;;;;;5014022;28;20030;-79
2021/03/31 03:47:48;;;;;;;424.27;82.50;;;1.50;99.90;;;;;;5013411;28;20069;-79
2021/03/31 03:50:15;;;;;;;208.75;64.38;;;1.70;99.90;;;;;;5013498;28;20044;-78
2021/03/31 03:52:47;;;;;;;168.57;56.67;;;1.70;99.90;;;;;;5014890;28;20041;-78
2021/03/31 03:55:18;;;;;;;138.32;49.40;;;1.60;99.90;;;;;;5013778;28;20133;-78
2021/03/31 03:57:43;;;;;;;125.20;43.00;;;1.40;99.90;;;;;;5014678;28;20026;-78
2021/03/31 04:00:14;;;;;;;110.53;41.40;;;1.20;99.90;;;;;;5014731;28;20026;-78
2021/03/31 04:02:40;;;;;;;171.55;40.20;;;1.00;99.90;;;;;;5014659;28;20483;-78
2021/03/31 04:05:07;;;;;;;76.00;33.33;;;0.80;99.90;;;;;;5011980;28;20022;-79
2021/03/31 04:07:32;;;;;;;78.82;36.13;;;0.70;99.90;;;;;;5014482;28;20025;-79
2021/03/31 04:10:00;;;;;;;89.75;36.85;;;0.70;99.90;;;;;;5013949;28;20568;-78
2021/03/31 04:12:27;;;;;;;102.88;38.53;;;0.50;99.90;;;;;;5013208;28;20026;-78
2021/03/31 04:14:53;;;;;;;77.68;36.83;;;0.50;99.90;;;;;;5013758;28;20037;-79
2021/03/31 04:17:19;;;;;;;81.97;36.50;;;0.40;99.90;;;;;;5012696;28;20030;-78
2021/03/31 04:19:48;;;;;;;79.90;35.25;;;0.40;99.90;;;;;;5013302;28;20025;-78
2021/03/31 04:22:14;;;;;;;64.35;34.33;;;0.40;99.90;;;;;;5012896;28;20151;-78
2021/03/31 04:24:40;;;;;;;61.55;33.00;;;0.20;99.90;;;;;;5012149;28;20710;-78
2021/03/31 04:27:10;;;;;;;57.63;30.65;;;0.10;99.90;;;;;;5012850;28;20061;-79
2021/03/31 04:29:39;;;;;;;65.80;33.15;;;0.10;99.90;;;;;;5012822;28;20482;-78
2021/03/31 04:32:07;;;;;;;79.80;34.40;;;0.00;99.90;;;;;;5012777;28;20104;-79
2021/03/31 04:34:33;;;;;;;84.00;37.92;;;0.00;99.90;;;;;;5013420;28;20030;-78
2021/03/31 04:36:58;;;;;;;80.20;33.50;;;0.00;99.90;;;;;;5012477;28;20465;-78
2021/03/31 04:39:24;;;;;;;124.28;38.95;;;0.00;99.90;;;;;;5013533;28;20034;-78
2021/03/31 04:41:49;;;;;;;80.72;36.70;;;0.00;99.90;;;;;;5013913;28;20393;-78
2021/03/31 04:44:15;;;;;;;104.43;40.47;;;0.10;99.90;;;;;;5013030;28;20029;-79
2021/03/31 04:46:41;;;;;;;128.98;46.50;;;0.10;99.90;;;;;;5011786;28;20033;-79
2021/03/31 04:49:06;;;;;;;95.43;39.67;;;0.30;99.90;;;;;;5012427;28;20410;-79
2021/03/31 04:51:32;;;;;;;80.88;37.03;;;0.30;99.90;;;;;;5012437;28;20034;-78
2021/03/31 04:53:57;;;;;;;70.47;36.45;;;0.30;99.90;;;;;;5011564;28;20029;-79
2021/03/31 04:56:23;;;;;;;61.45;34.22;;;0.30;99.90;;;;;;5011542;28;20553;-78
2021/03/31 04:58:48;;;;;;;64.72;35.42;;;0.30;99.90;;;;;;5012274;28;20040;-79
2021/03/31 05:01:14;;;;;;;92.22;36.30;;;0.30;99.90;;;;;;5013556;28;20398;-78
2021/03/31 05:03:40;;;;;;;62.92;35.55;;;0.40;99.90;;;;;;5011762;28;20026;-79
2021/03/31 05:06:05;;;;;;;55.08;33.88;;;0.40;99.90;;;;;;5012919;28;20490;-79
2021/03/31 05:08:31;;;;;;;59.75;35.15;;;0.50;99.90;;;;;;5012024;28;20029;-79
2021/03/31 05:10:56;;;;;;;58.88;35.10;;;0.50;99.90;;;;;;5013100;28;20042;-78
2021/03/31 05:13:22;;;;;;;89.72;40.15;;;0.60;99.90;;;;;;5013231;28;20036;-79
2021/03/31 05:15:47;;;;;;;99.55;45.83;;;0.70;99.90;;;;;;5010957;28;20029;-79
2021/03/31 05:18:13;;;;;;;100.38;42.80;;;0.80;99.90;;;;;;5011923;28;20114;-79
2021/03/31 05:20:38;;;;;;;90.35;40.10;;;0.80;99.90;;;;;;5011963;28;20026;-78
2021/03/31 05:23:04;;;;;;;97.10;41.75;;;0.80;99.90;;;;;;5013160;28;20032;-78
2021/03/31 05:25:30;;;;;;;96.22;39.80;;;0.70;99.90;;;;;;5012080;28;20022;-79
2021/03/31 05:27:55;;;;;;;82.40;41.10;;;0.70;99.90;;;;;;5012677;28;20100;-79
2021/03/31 05:30:21;;;;;;;83.63;40.35;;;0.80;99.90;;;;;;5011770;28;20022;-78
2021/03/31 05:32:47;;;;;;;55.10;34.50;;;0.80;99.90;;;;;;5011774;28;20033;-78
2021/03/31 05:35:13;;;;;;;84.75;35.22;;;0.80;99.90;;;;;;5010420;28;20026;-79
2021/03/31 05:37:39;;;;;;;47.22;32.38;;;0.80;99.90;;;;;;5012820;28;20045;-78
2021/03/31 05:40:05;;;;;;;56.95;36.13;;;0.80;99.90;;;;;;5012539;28;20474;-78
2021/03/31 05:42:36;;;;;;;53.67;34.28;;;0.90;99.90;;;;;;5012760;28;20026;-78
2021/03/31 05:45:08;;;;;;;51.22;33.22;;;1.00;99.90;;;;;;5011079;28;20029;-78
2021/03/31 05:47:37;;;;;;;46.70;32.47;;;1.10;99.90;;;;;;4991691;28;20038;-78
2021/03/31 05:50:05;;;;;;;56.28;35.38;;;1.20;99.90;;;;;;5008175;28;20033;-78
2021/03/31 05:52:31;;;;;;;70.20;38.42;;;1.30;99.90;;;;;;5008006;28;20018;-78
2021/03/31 05:54:57;;;;;;;67.40;37.42;;;1.40;99.90;;;;;;5012347;28;20037;-78
2021/03/31 05:57:25;;;;;;;80.55;39.47;;;1.50;99.90;;;;;;5011196;28;20502;-79
2021/03/31 05:59:52;;;;;;;83.90;42.13;;;1.50;99.90;;;;;;5012555;28;20036;-79
2021/03/31 06:02:18;;;;;;;96.72;44.20;;;1.50;99.90;;;;;;5012482;28;20025;-79
2021/03/31 06:04:44;;;;;;;92.18;42.45;;;1.60;99.90;;;;;;5011423;28;20096;-78
2021/03/31 06:07:11;;;;;;;114.55;46.25;;;1.60;99.90;;;;;;5012224;28;20434;-79
2021/03/31 06:10:09;;;;;;;98.68;45.88;;;1.70;99.90;;;;;;5010727;28;20022;-78
2021/03/31 06:12:36;;;;;;;95.65;42.80;;;1.80;99.90;;;;;;5006391;28;20029;-79
2021/03/31 06:15:18;;;;;;;98.82;43.13;;;1.90;99.90;;;;;;5007366;28;20486;-80
2021/03/31 06:17:51;;;;;;;92.55;44.28;;;2.00;99.90;;;;;;5001612;28;20034;-80
2021/03/31 06:20:45;;;;;;;112.05;48.08;;;2.20;99.90;;;;;;5008454;28;20042;-79
2021/03/31 06:26:01;;;;;;;139.18;53.88;;;2.50;99.90;;;;;;5008182;28;20400;-79
2021/03/31 06:28:29;;;;;;;118.05;53.00;;;2.90;99.90;;;;;;5008623;28;20459;-79
2021/03/31 06:31:26;;;;;;;137.55;53.70;;;3.10;99.90;;;;;;5007636;28;20499;-79
2021/03/31 06:33:52;;;;;;;151.45;58.97;;;3.30;99.90;;;;;;5007850;28;20099;-79
2021/03/31 06:36:32;;;;;;;152.10;60.20;;;3.60;99.90;;;;;;5007619;28;20030;-79
2021/03/31 06:38:57;;;;;;;220.95;76.13;;;3.80;99.90;;;;;;5006614;28;20034;-79
2021/03/31 06:41:30;;;;;;;228.02;80.70;;;4.10;99.90;;;;;;5007851;28;20101;-79
2021/03/31 06:44:17;;;;;;;340.73;105.90;;;4.50;99.90;;;;;;5005689;28;20057;-80
2021/03/31 06:46:52;;;;;;;397.95;118.40;;;4.80;99.90;;;;;;5007978;28;20145;-80
2021/03/31 06:49:17;;;;;;;460.40;128.10;;;5.20;99.90;;;;;;5006782;28;20490;-80
2021/03/31 06:51:43;;;;;;;483.58;144.18;;;5.60;99.90;;;;;;5007836;28;20030;-79
2021/03/31 06:54:13;;;;;;;483.50;136.45;;;6.00;99.90;;;;;;5006589;28;20030;-80
2021/03/31 06:56:40;;;;;;;475.40;131.93;;;6.20;99.90;;;;;;5003467;28;20375;-80
2021/03/31 06:59:05;;;;;;;479.92;131.63;;;6.40;99.90;;;;;;5008277;28;20033;-79
2021/03/31 07:01:32;;;;;;;457.02;127.80;;;6.50;99.90;;;;;;5005028;28;20026;-79
2021/03/31 07:04:03;;;;;;;418.75;123.95;;;6.70;99.90;;;;;;5006075;28;20057;-80
2021/03/31 07:06:29;;;;;;;494.70;134.30;;;6.90;99.90;;;;;;5007894;28;20030;-80
2021/03/31 07:08:54;;;;;;;407.58;118.28;;;7.10;99.90;;;;;;5005671;28;20084;-79
2021/03/31 07:11:34;;;;;;;438.13;124.32;;;7.30;99.90;;;;;;5003794;28;20433;-80
2021/03/31 07:14:01;;;;;;;396.77;110.82;;;7.50;99.90;;;;;;5006395;28;20057;-79
2021/03/31 07:16:27;;;;;;;443.65;121.00;;;7.70;99.90;;;;;;5005351;28;20014;-79
2021/03/31 07:18:56;;;;;;;374.20;110.30;;;7.80;99.90;;;;;;5007216;28;20048;-80
2021/03/31 07:21:22;;;;;;;362.80;107.25;;;8.00;99.90;;;;;;5013751;28;20101;-80
2021/03/31 07:23:50;;;;;;;345.08;99.22;;;8.20;99.90;;;;;;5013271;28;20030;-80
2021/03/31 07:26:15;;;;;;;340.60;94.40;;;8.40;99.90;;;;;;5015045;28;20026;-80
2021/03/31 07:28:44;;;;;;;281.95;90.97;;;8.60;99.90;;;;;;5015046;28;20036;-79
2021/03/31 07:31:15;;;;;;;294.15;93.18;;;8.70;99.90;;;;;;5013727;28;20037;-80
2021/03/31 07:33:48;;;;;;;280.55;84.97;;;8.90;99.90;;;;;;5014730;28;20018;-80
2021/03/31 07:36:14;;;;;;;270.88;88.40;;;9.10;99.90;;;;;;5013091;28;20133;-80
2021/03/31 07:38:41;;;;;;;270.42;84.15;;;9.20;99.90;;;;;;5013466;28;20109;-80
2021/03/31 07:41:08;;;;;;;254.90;79.10;;;9.40;99.90;;;;;;5013429;28;20034;-80
2021/03/31 07:43:45;;;;;;;239.70;78.28;;;9.70;99.90;;;;;;5014796;28;20448;-80
2021/03/31 07:46:17;;;;;;;232.35;74.20;;;9.90;99.90;;;;;;5013796;28;20026;-80
2021/03/31 07:48:44;;;;;;;192.15;67.53;;;10.10;99.90;;;;;;5014444;28;20034;-79
2021/03/31 07:51:23;;;;;;;189.65;65.93;;;10.20;99.90;;;;;;5004041;28;20029;-82
2021/03/31 07:53:51;;;;;;;182.93;64.10;;;10.50;99.90;;;;;;5012388;28;20057;-84
2021/03/31 07:56:32;;;;;;;174.23;63.95;;;10.60;99.90;;;;;;5014733;28;20033;-86
2021/03/31 07:59:04;;;;;;;158.52;60.10;;;10.80;99.90;;;;;;5013259;28;20034;-85
2021/03/31 08:01:34;;;;;;;161.25;56.45;;;11.00;99.90;;;;;;5013271;28;20589;-82
2021/03/31 08:04:02;;;;;;;127.00;49.70;;;11.20;99.90;;;;;;5013011;28;20041;-83
2021/03/31 08:06:32;;;;;;;117.05;47.08;;;11.10;99.90;;;;;;5014531;28;20034;-83
2021/03/31 08:09:06;;;;;;;113.05;44.65;;;11.30;99.90;;;;;;5013208;28;20109;-81
2021/03/31 08:11:41;;;;;;;95.05;40.95;;;11.40;99.90;;;;;;5013655;28;20382;-81
2021/03/31 08:14:08;;;;;;;78.60;33.35;;;11.60;99.90;;;;;;5012846;28;20018;-81
2021/03/31 08:16:43;;;;;;;75.88;32.88;;;11.80;99.90;;;;;;5013589;28;20108;-82
2021/03/31 08:19:16;;;;;;;67.68;30.17;;;11.80;99.90;;;;;;5010698;28;20026;-83
2021/03/31 08:21:47;;;;;;;57.95;25.55;;;12.00;99.90;;;;;;5012315;28;20022;-82
2021/03/31 08:24:13;;;;;;;58.00;25.40;;;12.10;99.90;;;;;;5012051;28;20490;-83
2021/03/31 08:26:43;;;;;;;51.53;24.98;;;12.40;99.90;;;;;;5014393;28;20065;-81
2021/03/31 08:29:10;;;;;;;41.53;21.95;;;12.60;99.90;;;;;;5011666;28;20026;-86
2021/03/31 08:31:40;;;;;;;50.00;23.92;;;12.70;99.90;;;;;;5012270;28;20021;-82
2021/03/31 08:34:07;;;;;;;38.42;17.58;;;12.90;99.90;;;;;;5012188;28;20022;-82
2021/03/31 08:36:35;;;;;;;41.30;18.95;;;13.10;99.90;;;;;;5012629;28;20120;-82
2021/03/31 08:39:03;;;;;;;39.05;18.75;;;13.20;99.90;;;;;;5012340;28;20394;-84
2021/03/31 08:41:29;;;;;;;41.10;17.58;;;13.40;99.90;;;;;;5012114;28;20410;-82
2021/03/31 08:44:16;;;;;;;39.58;19.25;;;13.60;99.90;;;;;;5013174;28;20026;-83
2021/03/31 08:46:42;;;;;;;35.60;18.17;;;13.80;99.90;;;;;;5013442;28;20029;-83
2021/03/31 08:49:42;;;;;;;39.70;18.92;;;14.00;99.90;;;;;;5013606;28;20038;-90
2021/03/31 08:52:11;;;;;;;30.55;15.95;;;14.20;99.90;;;;;;5001851;28;20453;-84
2021/03/31 08:54:39;;;;;;;28.45;16.60;;;14.20;99.90;;;;;;5011689;28;20029;-85
2021/03/31 08:57:07;;;;;;;35.03;18.85;;;14.30;99.90;;;;;;5013323;28;20017;-83
2021/03/31 08:59:35;;;;;;;46.53;16.20;;;14.60;99.90;;;;;;5012000;28;20022;-85
2021/03/31 09:02:02;;;;;;;35.78;16.15;;;14.80;99.90;;;;;;5003398;28;20061;-84
2021/03/31 09:04:27;;;;;;;31.45;15.48;;;15.00;99.90;;;;;;5007669;28;20038;-86
2021/03/31 09:06:57;;;;;;;30.70;15.68;;;15.30;99.90;;;;;;5007475;28;20092;-86
2021/03/31 09:09:23;;;;;;;31.85;15.10;;;15.50;99.90;;;;;;5007734;28;20037;-86
2021/03/31 09:12:01;;;;;;;27.08;14.73;;;15.90;99.90;;;;;;5008975;28;20060;-87
2021/03/31 09:14:28;;;;;;;34.42;14.85;;;16.10;99.90;;;;;;5006702;28;20048;-85
2021/03/31 09:17:00;;;;;;;28.83;13.00;;;16.30;99.90;;;;;;5008577;28;20117;-85
2021/03/31 09:19:28;;;;;;;29.02;13.77;;;16.40;99.90;;;;;;5008974;28;20061;-84
2021/03/31 09:21:54;;;;;;;33.42;13.38;;;16.50;99.90;;;;;;5008161;28;20426;-84
2021/03/31 09:24:23;;;;;;;35.30;15.70;;;16.60;99.90;;;;;;5006600;28;20034;-83
2021/03/31 09:27:02;;;;;;;31.38;16.77;;;16.70;99.90;;;;;;5007422;28;20025;-85
2021/03/31 09:29:28;;;;;;;32.72;15.05;;;16.80;99.90;;;;;;5007548;28;20056;-85
2021/03/31 09:31:55;;;;;;;27.45;15.27;;;16.80;99.90;;;;;;5005924;28;20073;-84
2021/03/31 09:34:21;;;;;;;32.00;15.43;;;16.90;99.90;;;;;;5006018;28;20017;-85
2021/03/31 09:37:07;;;;;;;35.50;16.38;;;17.00;99.90;;;;;;5007410;28;20053;-85
2021/03/31 09:39:53;;;;;;;38.25;19.17;;;17.30;99.90;;;;;;5007252;28;20564;-85
2021/03/31 09:42:23;;;;;;;43.03;19.05;;;17.40;99.90;;;;;;5006907;28;20022;-84
2021/03/31 09:44:50;;;;;;;38.47;20.42;;;17.40;99.90;;;;;;5008246;28;20398;-84
2021/03/31 09:47:18;;;;;;;48.28;21.15;;;17.60;99.90;;;;;;5006919;28;20030;-84
2021/03/31 09:49:44;;;;;;;35.80;19.48;;;17.70;99.90;;;;;;5009109;28;20480;-83
2021/03/31 09:52:12;;;;;;;38.05;19.00;;;18.00;99.90;;;;;;5006849;28;20025;-83
2021/03/31 09:54:37;;;;;;;51.20;21.77;;;18.10;99.90;;;;;;5006359;28;20092;-84
2021/03/31 09:57:04;;;;;;;36.47;19.75;;;18.30;99.90;;;;;;5002840;28;20050;-84
2021/03/31 09:59:31;;;;;;;36.90;19.38;;;18.10;99.90;;;;;;5008408;28;20026;-85
2021/03/31 10:01:57;;;;;;;37.15;19.85;;;18.20;99.90;;;;;;5006847;28;20025;-83
2021/03/31 10:04:23;;;;;;;42.75;20.35;;;18.50;99.90;;;;;;5005809;28;20025;-84
2021/03/31 10:07:12;;;;;;;38.17;20.38;;;18.60;99.90;;;;;;5008251;28;20021;-84
2021/03/31 10:09:42;;;;;;;40.50;19.08;;;18.70;99.90;;;;;;5006657;28;20057;-84
2021/03/31 10:12:09;;;;;;;33.92;20.58;;;18.70;99.90;;;;;;4999203;28;20110;-84
2021/03/31 10:14:43;;;;;;;43.83;22.30;;;19.00;99.90;;;;;;5006437;28;20034;-84
2021/03/31 10:17:10;;;;;;;38.45;20.95;;;18.90;99.90;;;;;;5007774;28;20030;-85
2021/03/31 10:19:36;;;;;;;39.47;21.17;;;18.90;99.90;;;;;;5006528;28;20462;-84
2021/03/31 10:22:06;;;;;;;42.30;23.80;;;19.10;99.90;;;;;;5006656;28;20062;-85
2021/03/31 10:24:40;;;;;;;49.05;23.90;;;19.30;99.90;;;;;;5011583;28;20030;-83
2021/03/31 10:27:07;;;;;;;49.38;22.65;;;19.50;99.90;;;;;;5010717;28;20030;-85
2021/03/31 10:29:33;;;;;;;41.55;22.63;;;19.70;99.90;;;;;;5010780;28;20034;-85
2021/03/31 10:32:00;;;;;;;46.30;23.10;;;19.80;99.90;;;;;;5010726;28;20026;-84
2021/03/31 10:34:41;;;;;;;37.83;22.95;;;19.80;99.90;;;;;;5010626;28;20446;-85
2021/03/31 10:48:23;;;;;;;48.47;25.10;;;20.40;99.90;;;;;;5011447;28;20057;-85
2021/03/31 10:50:53;;;;;;;43.58;25.48;;;20.50;99.90;;;;;;5010805;28;20539;-85
2021/03/31 10:53:29;;;;;;;44.60;25.48;;;20.50;99.90;;;;;;5008604;28;20025;-86
2021/03/31 10:55:54;;;;;;;56.08;27.92;;;20.60;97.50;;;;;;5006778;28;20018;-84
2021/03/31 10:58:20;;;;;;;45.25;25.05;;;20.50;96.10;;;;;;5007482;28;20037;-84
2021/03/31 11:00:45;;;;;;;47.78;26.65;;;20.60;95.20;;;;;;5006219;28;20026;-84
2021/03/31 11:03:11;;;;;;;48.60;28.08;;;20.70;99.40;;;;;;5005436;28;20026;-84
2021/03/31 11:05:36;;;;;;;46.65;26.02;;;20.90;93.80;;;;;;5004009;28;20498;-85
2021/03/31 11:08:02;;;;;;;58.13;28.92;;;21.00;96.20;;;;;;5007466;28;20120;-85
2021/03/31 11:10:28;;;;;;;44.17;26.52;;;21.10;86.80;;;;;;5007367;28;20037;-84
2021/03/31 11:12:53;;;;;;;48.97;27.65;;;21.10;85.40;;;;;;4997931;28;20030;-85
2021/03/31 11:15:21;;;;;;;49.92;27.13;;;21.30;88.50;;;;;;4992379;28;20026;-85
2021/03/31 11:17:58;;;;;;;50.53;25.98;;;21.20;84.10;;;;;;5004071;28;20026;-86
2021/03/31 11:28:08;;;;;;;51.47;28.05;;;21.40;85.50;;;;;;5009811;28;20466;-86
2021/03/31 11:30:35;;;;;;;50.33;26.35;;;21.40;82.40;;;;;;5008886;28;20018;-85
2021/03/31 11:33:00;;;;;;;49.78;27.40;;;21.10;90.40;;;;;;5010314;28;20026;-86
2021/03/31 11:35:26;;;;;;;52.17;30.10;;;21.40;92.80;;;;;;5008412;28;20033;-85
2021/03/31 11:37:51;;;;;;;54.67;28.85;;;21.80;93.80;;;;;;5007731;28;20033;-87
2021/03/31 11:40:17;;;;;;;52.30;29.20;;;22.00;75.50;;;;;;5010288;28;20057;-88
2021/03/31 11:42:43;;;;;;;54.28;29.40;;;22.10;89.30;;;;;;5009254;28;20030;-87
2021/03/31 11:45:10;;;;;;;56.22;31.40;;;22.00;73.40;;;;;;5008015;28;20148;-88
2021/03/31 11:47:36;;;;;;;58.92;29.17;;;22.00;72.70;;;;;;5008103;28;20202;-86
2021/03/31 11:50:01;;;;;;;62.95;29.67;;;22.00;73.60;;;;;;5009355;28;20145;-86
2021/03/31 11:52:27;;;;;;;57.60;29.58;;;22.20;70.20;;;;;;5008836;28;20049;-88
2021/03/31 11:54:52;;;;;;;47.60;28.08;;;22.00;67.40;;;;;;5009302;28;20045;-86
2021/03/31 11:57:33;;;;;;;51.95;29.85;;;22.50;72.30;;;;;;5009866;28;20034;-87
2021/03/31 11:59:59;;;;;;;56.83;28.98;;;22.90;66.70;;;;;;5009217;28;20544;-86
2021/03/31 12:02:25;;;;;;;69.07;32.95;;;22.90;61.30;;;;;;5010072;28;20076;-85
2021/03/31 12:04:50;;;;;;;57.70;30.77;;;23.20;58.50;;;;;;5010433;28;20026;-86
2021/03/31 12:07:19;;;;;;;62.70;32.35;;;23.30;59.30;;;;;;5005555;28;20385;-88
2021/03/31 12:09:44;;;;;;;58.45;30.02;;;23.20;58.00;;;;;;5014241;28;20470;-86
2021/03/31 12:12:13;;;;;;;56.67;28.65;;;23.60;56.30;;;;;;5014246;28;20053;-86
2021/03/31 12:14:38;;;;;;;58.65;32.45;;;24.40;55.60;;;;;;5013749;28;20029;-87
2021/03/31 12:17:04;;;;;;;54.75;30.88;;;24.50;51.70;;;;;;5012988;28;20025;-85
2021/03/31 12:19:30;;;;;;;69.88;31.75;;;24.50;51.70;;;;;;5014269;28;20470;-85
2021/03/31 12:21:56;;;;;;;57.83;31.48;;;24.60;52.80;;;;;;5014049;28;20121;-88
2021/03/31 12:24:23;;;;;;;62.58;32.92;;;24.60;51.10;;;;;;5013765;28;20561;-86
2021/03/31 12:26:48;;;;;;;56.45;29.27;;;24.50;51.30;;;;;;5012885;28;20108;-86
2021/03/31 12:29:16;;;;;;;57.53;30.98;;;24.60;49.80;;;;;;5012748;28;20120;-87
2021/03/31 12:31:42;;;;;;;59.15;33.08;;;24.70;51.80;;;;;;5013984;28;20032;-87
2021/03/31 12:34:08;;;;;;;57.15;33.00;;;25.00;48.20;;;;;;5013521;28;20475;-87
2021/03/31 12:36:34;;;;;;;59.15;30.77;;;25.40;49.10;;;;;;5014146;28;20025;-86
2021/03/31 12:38:59;;;;;;;59.47;32.47;;;25.80;47.40;;;;;;5012580;28;20026;-87
2021/03/31 12:41:25;;;;;;;74.45;33.80;;;25.80;45.20;;;;;;5012854;28;20040;-86
2021/03/31 12:43:51;;;;;;;63.25;33.33;;;25.70;48.20;;;;;;5012944;28;20034;-85
2021/03/31 12:46:16;;;;;;;62.50;32.35;;;25.70;47.50;;;;;;5012229;28;20080;-86
2021/03/31 12:48:42;;;;;;;58.17;33.53;;;25.60;48.00;;;;;;5012353;28;20304;-86
2021/03/31 12:51:11;;;;;;;66.65;33.60;;;25.30;45.80;;;;;;5012630;28;20598;-87
2021/03/31 12:53:52;;;;;;;68.13;32.88;;;25.30;44.80;;;;;;5013326;28;20076;-85
2021/03/31 12:56:19;;;;;;;63.35;33.30;;;25.60;45.70;;;;;;5012542;28;20105;-87
2021/03/31 12:58:45;;;;;;;58.70;32.65;;;25.30;46.90;;;;;;5012676;28;20025;-87